createdAt,value
2022-08-10T00:01:01.772Z,2.24
2022-08-10T00:03:28.176Z,2.19
2022-08-10T00:05:54.637Z,2.26
2022-08-10T00:08:23.517Z,2.07
2022-08-10T00:10:50.549Z,2.20
2022-08-10T00:13:16.893Z,2.10
2022-08-10T00:15:52.168Z,2.14
2022-08-10T00:18:35.250Z,2.01
2022-08-10T00:21:02.442Z,1.99
2022-08-10T00:23:28.816Z,2.30
2022-08-10T00:25:55.177Z,2.26
2022-08-10T00:28:21.529Z,1.93
2022-08-10T00:30:47.879Z,2.24
2022-08-10T00:33:14.236Z,2.20
2022-08-10T00:35:40.591Z,1.98
2022-08-10T00:38:06.961Z,1.92
2022-08-10T00:40:37.037Z,2.04
2022-08-10T00:43:04.471Z,1.99
2022-08-10T00:45:30.818Z,2.08
2022-08-10T00:47:57.170Z,2.16
2022-08-10T00:50:23.544Z,2.15
2022-08-10T00:52:49.899Z,2.11
2022-08-10T00:55:16.254Z,2.13
2022-08-10T00:57:42.606Z,2.02
2022-08-10T01:00:08.962Z,2.03
2022-08-10T01:02:35.553Z,2.21
2022-08-10T01:05:02.764Z,2.02
2022-08-10T01:07:29.393Z,1.94
2022-08-10T01:09:57.294Z,1.95
2022-08-10T01:12:38.259Z,1.79
2022-08-10T01:15:06.544Z,2.11
2022-08-10T01:17:50.319Z,2.06
2022-08-10T01:20:30.064Z,2.11
2022-08-10T01:22:57.148Z,1.95
2022-08-10T01:25:23.506Z,2.03
2022-08-10T01:27:49.852Z,2.08
2022-08-10T01:30:16.210Z,2.03
2022-08-10T01:32:42.564Z,2.07
2022-08-10T01:35:08.915Z,2.08
2022-08-10T01:37:36.545Z,2.03
2022-08-10T01:40:02.912Z,2.09
2022-08-10T01:42:29.273Z,1.87
2022-08-10T01:44:55.645Z,1.99
2022-08-10T01:47:23.456Z,1.81
2022-08-10T01:49:50.001Z,2.10
2022-08-10T01:52:18.221Z,2.00
2022-08-10T01:54:44.733Z,1.91
2022-08-10T01:57:11.074Z,1.88
2022-08-10T01:59:37.457Z,1.97
2022-08-10T02:02:03.816Z,2.21
2022-08-10T02:04:30.171Z,1.93
2022-08-10T02:06:56.533Z,2.22
2022-08-10T02:09:22.877Z,2.26
2022-08-10T02:12:05.843Z,1.94
2022-08-10T02:14:34.923Z,2.12
2022-08-10T02:17:01.349Z,2.15
2022-08-10T02:19:27.695Z,2.08
2022-08-10T02:22:37.009Z,2.08
2022-08-10T02:24:40.395Z,2.14
2022-08-10T02:27:06.746Z,2.10
2022-08-10T02:29:33.094Z,1.96
2022-08-10T02:31:59.443Z,1.97
2022-08-10T02:34:26.240Z,2.25
2022-08-10T02:36:52.610Z,1.91
2022-08-10T02:39:19.108Z,2.08
2022-08-10T02:45:00.993Z,2.09
2022-08-10T02:45:20.126Z,2.14
2022-08-10T02:47:18.178Z,2.09
2022-08-10T02:49:44.544Z,2.05
2022-08-10T02:52:10.911Z,2.03
2022-08-10T02:54:37.279Z,1.89
2022-08-10T02:57:03.629Z,1.86
2022-08-10T02:59:39.679Z,2.01
2022-08-10T03:02:06.759Z,2.01
2022-08-10T03:04:55.090Z,2.13
2022-08-10T03:07:19.451Z,2.08
2022-08-10T03:10:05.782Z,2.04
2022-08-10T03:12:39.754Z,1.85
2022-08-10T03:15:06.136Z,1.88
2022-08-10T03:17:32.495Z,1.93
2022-08-10T03:20:33.336Z,1.93
2022-08-10T03:22:45.204Z,1.76
2022-08-10T03:25:11.557Z,2.05
2022-08-10T03:27:37.920Z,1.99
2022-08-10T03:30:29.732Z,1.67
2022-08-10T03:32:50.627Z,1.97
2022-08-10T03:35:20.048Z,2.08
2022-08-10T03:37:46.403Z,1.79
2022-08-10T03:40:12.751Z,2.07
2022-08-10T03:42:39.108Z,1.91
2022-08-10T03:45:05.461Z,1.99
2022-08-10T03:47:31.812Z,2.15
2022-08-10T03:49:58.162Z,1.99
2022-08-10T03:52:29.856Z,2.02
2022-08-10T03:54:56.216Z,1.97
2022-08-10T03:57:22.567Z,2.04
2022-08-10T03:59:48.923Z,1.86
2022-08-10T04:02:45.177Z,1.88
2022-08-10T04:05:01.619Z,2.07
2022-08-10T04:07:28.023Z,2.04
2022-08-10T04:09:56.447Z,2.06
2022-08-10T04:12:25.190Z,2.11
2022-08-10T04:14:53.163Z,1.99
2022-08-10T04:18:04.013Z,2.20
2022-08-10T04:20:06.303Z,1.99
2022-08-10T04:22:32.676Z,1.90
2022-08-10T04:24:59.026Z,2.18
2022-08-10T04:27:25.378Z,2.02
2022-08-10T04:29:51.766Z,2.07
2022-08-10T04:32:18.113Z,2.03
2022-08-10T04:34:44.471Z,2.00
2022-08-10T04:37:10.829Z,2.11
2022-08-10T04:39:37.266Z,2.09
2022-08-10T04:42:03.697Z,1.84
2022-08-10T04:44:30.053Z,1.96
2022-08-10T04:46:58.323Z,2.11
2022-08-10T04:49:55.276Z,2.08
2022-08-10T04:52:12.056Z,1.99
2022-08-10T04:54:38.416Z,1.88
2022-08-10T04:57:04.773Z,1.77
2022-08-10T04:59:31.126Z,2.22
2022-08-10T05:02:21.623Z,2.01
2022-08-10T05:04:43.807Z,2.09
2022-08-10T05:07:10.175Z,2.00
2022-08-10T05:10:04.751Z,2.00
2022-08-10T05:12:22.857Z,2.05
2022-08-10T05:14:49.227Z,1.95
2022-08-10T05:17:15.574Z,1.97
2022-08-10T05:20:03.646Z,2.14
2022-08-10T05:22:28.266Z,2.04
2022-08-10T05:24:54.613Z,1.99
2022-08-10T05:27:20.978Z,1.94
2022-08-10T05:30:00.967Z,1.94
2022-08-10T05:32:29.040Z,2.11
2022-08-10T05:34:55.397Z,2.16
2022-08-10T05:38:12.902Z,2.11
2022-08-10T05:40:08.085Z,1.93
2022-08-10T05:42:34.538Z,2.06
2022-08-10T05:45:01.005Z,2.05
2022-08-10T05:47:27.361Z,2.04
2022-08-10T05:49:55.497Z,1.96
2022-08-10T05:52:21.852Z,1.92
2022-08-10T05:54:48.206Z,2.13
2022-08-10T05:57:14.566Z,2.23
2022-08-10T06:00:12.703Z,1.98
2022-08-10T06:02:30.914Z,2.07
2022-08-10T06:05:07.919Z,2.20
2022-08-10T06:07:34.301Z,2.10
2022-08-10T06:10:00.667Z,2.23
2022-08-10T06:12:30.375Z,2.04
2022-08-10T06:15:00.050Z,2.11
2022-08-10T06:17:31.437Z,2.16
2022-08-10T06:19:57.816Z,2.00
2022-08-10T06:22:24.166Z,2.23
2022-08-10T06:25:18.328Z,1.96
2022-08-10T06:27:36.871Z,2.37
2022-08-10T06:30:03.221Z,2.18
2022-08-10T06:32:46.860Z,2.06
2022-08-10T06:35:13.216Z,2.20
2022-08-10T06:37:39.569Z,2.39
2022-08-10T06:40:05.985Z,2.12
2022-08-10T06:42:32.691Z,2.15
2022-08-10T06:44:59.107Z,2.03
2022-08-10T06:47:25.463Z,2.14
2022-08-10T06:49:51.829Z,2.22
2022-08-10T06:52:18.590Z,2.29
2022-08-10T06:54:45.009Z,2.12
2022-08-10T06:57:18.829Z,2.17
2022-08-10T06:59:45.315Z,2.19
2022-08-10T07:02:11.672Z,2.12
2022-08-10T07:04:38.040Z,2.26
2022-08-10T07:07:04.482Z,2.19
2022-08-10T07:09:30.874Z,2.44
2022-08-10T07:11:57.238Z,2.45
2022-08-10T07:14:33.760Z,2.31
2022-08-10T07:17:00.115Z,2.07
2022-08-10T07:19:26.469Z,2.46
2022-08-10T07:21:52.821Z,2.28
2022-08-10T07:24:24.325Z,2.44
2022-08-10T07:26:50.682Z,2.28
2022-08-10T07:29:26.789Z,2.28
2022-08-10T07:32:03.370Z,2.32
2022-08-10T07:34:30.178Z,2.45
2022-08-10T07:36:56.634Z,2.36
2022-08-10T07:40:02.645Z,2.22
2022-08-10T07:42:09.320Z,2.40
2022-08-10T07:44:35.686Z,2.43
2022-08-10T07:47:02.045Z,2.36
2022-08-10T07:49:28.406Z,2.17
2022-08-10T07:51:55.241Z,2.34
2022-08-10T07:54:21.612Z,2.38
2022-08-10T07:56:49.425Z,2.37
2022-08-10T07:59:15.956Z,2.25
2022-08-10T08:01:42.353Z,2.51
2022-08-10T08:04:11.716Z,2.49
2022-08-10T08:06:38.475Z,2.32
2022-08-10T08:09:04.849Z,2.28
2022-08-10T08:11:31.279Z,2.41
2022-08-10T08:13:57.634Z,2.49
2022-08-10T08:16:23.983Z,2.30
2022-08-10T08:18:58.346Z,2.35
2022-08-10T08:24:30.227Z,2.46
2022-08-10T08:24:33.491Z,2.51
2022-08-10T08:27:00.422Z,2.15
2022-08-10T08:29:26.788Z,2.31
2022-08-10T08:32:01.996Z,2.31
2022-08-10T08:34:29.451Z,2.38
2022-08-10T08:36:59.445Z,2.50
2022-08-10T08:39:26.146Z,2.38
2022-08-10T08:41:52.562Z,2.31
2022-08-10T08:44:18.920Z,2.28
2022-08-10T08:46:45.291Z,2.45
2022-08-10T08:49:11.641Z,2.42
2022-08-10T08:52:17.097Z,2.30
2022-08-10T08:54:24.362Z,2.23
2022-08-10T08:56:50.713Z,2.34
2022-08-10T08:59:17.074Z,2.26
2022-08-10T09:01:43.496Z,2.50
2022-08-10T09:04:20.004Z,2.34
2022-08-10T09:06:47.534Z,2.26
2022-08-10T09:09:14.826Z,2.34
2022-08-10T09:11:41.271Z,2.35
2022-08-10T09:14:07.631Z,2.39
2022-08-10T09:16:34.008Z,2.51
2022-08-10T09:19:00.377Z,2.33
2022-08-10T09:21:26.722Z,2.46
2022-08-10T09:24:05.531Z,2.46
2022-08-10T09:26:32.684Z,2.24
2022-08-10T09:29:11.979Z,2.49
2022-08-10T09:31:39.459Z,2.31
2022-08-10T09:36:19.401Z,2.28
2022-08-10T09:36:52.150Z,2.24
2022-08-10T09:40:56.459Z,2.60
2022-08-10T09:42:04.855Z,2.36
2022-08-10T09:44:33.846Z,2.57
2022-08-10T09:47:20.201Z,2.33
2022-08-10T09:50:06.588Z,2.45
2022-08-10T09:52:32.988Z,2.69
2022-08-10T09:54:59.435Z,2.36
2022-08-10T09:57:43.474Z,2.16
2022-08-10T10:00:12.127Z,2.61
2022-08-10T10:02:38.483Z,2.39
2022-08-10T10:05:04.847Z,2.28
2022-08-10T10:07:31.249Z,2.61
2022-08-10T10:09:57.599Z,2.41
2022-08-10T10:12:23.954Z,2.44
2022-08-10T10:14:50.309Z,2.31
2022-08-10T10:17:16.674Z,2.49
2022-08-10T10:19:43.028Z,2.47
2022-08-10T10:22:09.382Z,2.43
2022-08-10T10:24:35.739Z,2.57
2022-08-10T10:27:02.429Z,2.73
2022-08-10T10:29:57.029Z,2.47
2022-08-10T10:32:16.347Z,2.63
2022-08-10T10:34:42.709Z,2.57
2022-08-10T10:37:09.059Z,2.30
2022-08-10T10:39:35.471Z,2.54
2022-08-10T10:42:04.248Z,2.50
2022-08-10T10:44:31.280Z,2.49
2022-08-10T10:46:57.680Z,2.57
2022-08-10T10:49:24.034Z,2.74
2022-08-10T10:51:50.388Z,2.42
2022-08-10T10:54:16.769Z,2.49
2022-08-10T10:56:43.155Z,2.73
2022-08-10T10:59:33.498Z,2.74
2022-08-10T11:01:55.906Z,2.49
2022-08-10T11:04:22.282Z,2.56
2022-08-10T11:06:48.640Z,2.41
2022-08-10T11:10:05.157Z,2.49
2022-08-10T11:12:03.050Z,2.60
2022-08-10T11:14:31.206Z,2.43
2022-08-10T11:17:00.365Z,2.41
2022-08-10T11:19:26.795Z,2.41
2022-08-10T11:22:16.264Z,2.40
2022-08-10T11:24:49.770Z,2.54
2022-08-10T11:27:21.604Z,2.57
2022-08-10T11:29:49.559Z,2.47
2022-08-10T11:32:20.679Z,2.47
2022-08-10T11:35:11.069Z,2.27
2022-08-10T11:38:32.901Z,2.53
2022-08-10T11:40:20.678Z,2.51
2022-08-10T11:42:47.036Z,2.62
2022-08-10T11:45:13.409Z,2.58
2022-08-10T11:47:39.754Z,2.51
2022-08-10T11:50:06.114Z,2.51
2022-08-10T11:52:32.512Z,2.26
2022-08-10T11:54:58.908Z,2.50
2022-08-10T11:57:25.253Z,2.60
2022-08-10T12:00:11.585Z,2.56
2022-08-10T12:02:38.069Z,2.56
2022-08-10T12:05:04.559Z,2.54
2022-08-10T12:10:05.133Z,2.67
2022-08-10T12:10:17.254Z,2.54
2022-08-10T12:12:43.616Z,2.43
2022-08-10T12:15:09.966Z,2.46
2022-08-10T12:17:36.369Z,2.31
2022-08-10T12:20:03.907Z,2.62
2022-08-10T12:22:30.474Z,2.58
2022-08-10T12:24:58.847Z,2.61
2022-08-10T12:27:25.204Z,2.63
2022-08-10T12:29:51.570Z,2.41
2022-08-10T12:32:17.933Z,2.59
2022-08-10T12:34:52.004Z,2.34
2022-08-10T12:37:18.351Z,2.49
2022-08-10T12:39:44.766Z,2.55
2022-08-10T12:42:11.155Z,2.40
2022-08-10T12:44:57.490Z,2.37
2022-08-10T12:47:23.843Z,2.58
2022-08-10T12:50:30.008Z,2.45
2022-08-10T12:52:36.672Z,2.74
2022-08-10T12:55:03.151Z,2.62
2022-08-10T12:57:29.516Z,2.53
2022-08-10T12:59:55.897Z,2.47
2022-08-10T13:02:22.282Z,2.57
2022-08-10T13:04:48.673Z,2.48
2022-08-10T13:08:25.654Z,2.80
2022-08-10T13:10:01.363Z,2.59
2022-08-10T13:12:38.486Z,2.56
2022-08-10T13:15:28.247Z,2.41
2022-08-10T13:17:52.942Z,2.45
2022-08-10T13:20:19.326Z,2.68
2022-08-10T13:22:45.697Z,2.36
2022-08-10T13:25:12.052Z,2.46
2022-08-10T13:28:02.719Z,2.62
2022-08-10T13:30:37.936Z,2.44
2022-08-10T13:33:04.746Z,2.72
2022-08-10T13:35:31.106Z,2.63
2022-08-10T13:37:57.462Z,2.48
2022-08-10T13:40:23.880Z,2.54
2022-08-10T13:42:50.318Z,2.72
2022-08-10T13:45:16.661Z,2.49
2022-08-10T13:47:49.745Z,2.47
2022-08-10T13:50:16.598Z,2.43
2022-08-10T13:52:45.694Z,2.59
2022-08-10T13:55:12.060Z,2.27
2022-08-10T13:57:38.447Z,2.59
2022-08-10T14:00:34.030Z,2.64
2022-08-10T14:03:00.224Z,2.57
2022-08-10T14:05:26.578Z,2.71
2022-08-10T14:08:01.099Z,2.47
2022-08-10T14:11:10.103Z,2.51
2022-08-10T14:13:14.175Z,2.62
2022-08-10T14:15:40.530Z,2.38
2022-08-10T14:18:06.886Z,2.69
2022-08-10T14:20:33.247Z,2.35
2022-08-10T14:22:59.599Z,2.61
2022-08-10T14:25:25.954Z,2.34
2022-08-10T14:28:03.316Z,2.50
2022-08-10T14:30:30.904Z,2.60
2022-08-10T14:32:57.541Z,2.44
2022-08-10T14:36:18.369Z,2.33
2022-08-10T14:38:10.260Z,2.47
2022-08-10T14:40:36.618Z,2.53
2022-08-10T14:43:02.974Z,2.48
2022-08-10T14:45:29.332Z,2.67
2022-08-10T14:47:59.400Z,2.52
2022-08-10T14:50:32.364Z,2.47
2022-08-10T14:52:59.410Z,2.62
2022-08-10T14:55:25.761Z,2.68
2022-08-10T14:58:20.399Z,2.55
2022-08-10T15:00:42.505Z,2.52
2022-08-10T15:03:10.856Z,2.50
2022-08-10T15:05:59.132Z,2.37
2022-08-10T15:08:25.743Z,2.28
2022-08-10T15:10:52.113Z,2.41
2022-08-10T15:13:34.547Z,2.48
2022-08-10T15:16:12.431Z,2.57
2022-08-10T15:18:39.566Z,2.59
2022-08-10T15:21:17.200Z,2.45
2022-08-10T15:24:05.350Z,2.53
2022-08-10T15:26:30.432Z,2.65
2022-08-10T15:29:24.011Z,2.45
2022-08-10T15:31:46.753Z,2.55
2022-08-10T15:34:15.627Z,2.54
2022-08-10T15:36:41.987Z,2.62
2022-08-10T15:39:16.475Z,2.48
2022-08-10T15:41:58.366Z,2.39
2022-08-10T15:44:26.518Z,2.51
2022-08-10T15:46:53.712Z,2.35
2022-08-10T15:49:20.503Z,2.45
2022-08-10T15:51:54.209Z,2.41
2022-08-10T15:54:33.829Z,2.35
2022-08-10T15:57:00.643Z,2.48
2022-08-10T15:59:27.009Z,2.36
2022-08-10T16:02:13.201Z,2.43
2022-08-10T16:04:39.714Z,2.47
2022-08-10T16:07:06.485Z,2.46
2022-08-10T16:10:10.752Z,2.57
2022-08-10T16:12:29.305Z,2.45
2022-08-10T16:14:56.546Z,2.50
2022-08-10T16:17:22.916Z,2.42
2022-08-10T16:19:49.383Z,2.54
2022-08-10T16:22:36.768Z,2.31
2022-08-10T16:25:02.074Z,2.49
2022-08-10T16:27:28.427Z,2.32
2022-08-10T16:29:56.390Z,2.37
2022-08-10T16:32:23.322Z,2.41
2022-08-10T16:34:49.668Z,2.53
2022-08-10T16:37:16.042Z,2.47
2022-08-10T16:39:57.803Z,2.33
2022-08-10T16:42:25.912Z,2.36
2022-08-10T16:44:52.301Z,2.37
2022-08-10T16:47:18.661Z,2.42
2022-08-10T16:49:45.014Z,2.73
2022-08-10T16:52:11.368Z,2.49
2022-08-10T16:54:37.722Z,2.33
2022-08-10T16:57:07.825Z,2.46
2022-08-10T16:59:34.186Z,2.36
2022-08-10T17:02:00.540Z,2.56
2022-08-10T17:04:26.924Z,2.41
2022-08-10T17:06:56.200Z,2.51
2022-08-10T17:09:22.892Z,2.56
2022-08-10T17:11:49.241Z,2.42
2022-08-10T17:14:15.623Z,2.50
2022-08-10T17:16:41.965Z,2.48
2022-08-10T17:19:08.317Z,2.53
2022-08-10T17:21:34.681Z,2.33
2022-08-10T17:24:01.110Z,2.58
2022-08-10T17:26:35.809Z,2.55
2022-08-10T17:29:03.664Z,2.38
2022-08-10T17:31:54.519Z,2.60
2022-08-10T17:34:16.700Z,2.40
2022-08-10T17:36:43.098Z,2.29
2022-08-10T17:39:09.485Z,2.47
2022-08-10T17:41:35.888Z,2.34
2022-08-10T17:44:03.406Z,2.42
2022-08-10T17:46:29.947Z,2.52
2022-08-10T17:48:56.319Z,2.55
2022-08-10T17:51:25.354Z,2.39
2022-08-10T17:53:53.846Z,2.58
2022-08-10T17:56:20.194Z,2.56
2022-08-10T17:58:46.568Z,2.54
2022-08-10T18:01:40.711Z,2.51
2022-08-10T18:03:59.258Z,2.21
2022-08-10T18:06:25.616Z,2.45
2022-08-10T18:08:51.974Z,2.31
2022-08-10T18:11:19.743Z,2.46
2022-08-10T18:13:55.761Z,2.69
2022-08-10T18:16:23.115Z,2.66
2022-08-10T18:18:49.511Z,2.45
2022-08-10T18:21:24.721Z,2.47
2022-08-10T18:23:53.470Z,2.57
2022-08-10T18:26:19.832Z,2.54
2022-08-10T18:28:46.195Z,2.48
2022-08-10T18:31:12.547Z,2.47
2022-08-10T18:33:38.900Z,2.62
2022-08-10T18:36:05.268Z,2.71
2022-08-10T18:38:32.804Z,2.51
2022-08-10T18:40:59.151Z,2.51
2022-08-10T18:44:10.756Z,2.52
2022-08-10T18:46:11.831Z,2.40
2022-08-10T18:48:38.200Z,2.30
2022-08-10T18:51:06.063Z,2.37
2022-08-10T18:53:32.764Z,2.46
2022-08-10T18:56:08.562Z,2.41
2022-08-10T18:58:36.251Z,2.54
2022-08-10T19:01:02.666Z,2.54
2022-08-10T19:03:29.063Z,2.52
2022-08-10T19:05:55.416Z,2.49
2022-08-10T19:08:30.732Z,2.43
2022-08-10T19:10:57.762Z,2.49
2022-08-10T19:13:24.114Z,2.39
2022-08-10T19:15:50.476Z,2.43
2022-08-10T19:18:16.861Z,2.28
2022-08-10T19:20:43.221Z,2.44
2022-08-10T19:23:09.583Z,2.59
2022-08-10T19:26:42.129Z,2.50
2022-08-10T19:28:22.276Z,2.56
2022-08-10T19:30:48.643Z,2.40
2022-08-10T19:33:15.069Z,2.36
2022-08-10T19:36:03.990Z,2.46
2022-08-10T19:38:33.084Z,2.55
2022-08-10T19:40:59.935Z,2.36
2022-08-10T19:43:59.984Z,2.50
2022-08-10T19:46:27.472Z,2.43
2022-08-10T19:48:54.548Z,2.43
2022-08-10T19:51:20.915Z,2.57
2022-08-10T19:53:47.271Z,2.40
2022-08-10T19:56:32.932Z,2.21
2022-08-10T19:58:59.979Z,2.22
2022-08-10T20:01:26.445Z,2.41
2022-08-10T20:04:12.687Z,2.50
2022-08-10T20:06:39.047Z,2.43
2022-08-10T20:09:05.395Z,2.38
2022-08-10T20:11:44.601Z,2.54
2022-08-10T20:14:22.164Z,2.25
2022-08-10T20:16:49.140Z,2.38
2022-08-10T20:19:15.505Z,2.48
2022-08-10T20:21:41.860Z,2.35
2022-08-10T20:24:08.208Z,2.58
2022-08-10T20:26:34.559Z,2.32
2022-08-10T20:29:00.939Z,2.32
2022-08-10T20:31:27.291Z,2.41
2022-08-10T20:33:57.443Z,2.60
2022-08-10T20:36:26.709Z,2.40
2022-08-10T20:38:53.075Z,2.30
2022-08-10T20:41:20.273Z,2.40
2022-08-10T20:43:46.624Z,2.30
2022-08-10T20:46:12.983Z,2.50
2022-08-10T20:48:39.338Z,2.29
2022-08-10T20:51:05.698Z,2.49
2022-08-10T20:53:32.046Z,2.49
2022-08-10T20:55:58.402Z,2.40
2022-08-10T20:58:24.751Z,2.31
2022-08-10T21:00:51.171Z,2.47
2022-08-10T21:03:22.077Z,2.54
2022-08-10T21:05:52.629Z,2.36
2022-08-10T21:08:19.247Z,2.49
2022-08-10T21:10:45.592Z,2.42
2022-08-10T21:13:11.986Z,2.61
2022-08-10T21:15:41.984Z,2.42
2022-08-10T21:18:09.075Z,2.53
2022-08-10T21:20:35.492Z,2.49
2022-08-10T21:23:05.453Z,2.42
2022-08-10T21:25:32.111Z,2.38
2022-08-10T21:27:59.526Z,2.45
2022-08-10T21:30:25.894Z,2.44
2022-08-10T21:32:53.937Z,2.58
2022-08-10T21:35:36.256Z,2.40
2022-08-10T21:38:04.278Z,2.51
2022-08-10T21:40:35.003Z,2.54
2022-08-10T21:43:02.268Z,2.33
2022-08-10T21:45:43.539Z,2.19
2022-08-10T21:48:17.294Z,2.38
2022-08-10T21:50:45.823Z,2.34
2022-08-10T21:53:12.740Z,2.53
2022-08-10T21:55:55.906Z,2.27
2022-08-10T21:58:27.430Z,2.40
2022-08-10T22:00:54.059Z,2.43
2022-08-10T22:03:20.415Z,2.38
2022-08-10T22:05:46.760Z,2.28
2022-08-10T22:08:14.990Z,2.33
2022-08-10T22:10:41.425Z,2.39
2022-08-10T22:13:08.593Z,2.19
2022-08-10T22:16:03.895Z,2.47
2022-08-10T22:18:31.146Z,2.29
2022-08-10T22:20:58.113Z,2.19
2022-08-10T22:23:24.438Z,2.18
2022-08-10T22:25:53.691Z,2.30
2022-08-10T22:28:20.011Z,2.39
2022-08-10T22:31:14.902Z,2.34
2022-08-10T22:33:32.693Z,2.34
2022-08-10T22:35:58.981Z,2.09
2022-08-10T22:38:25.303Z,2.35
2022-08-10T22:40:51.601Z,2.50
2022-08-10T22:43:35.414Z,2.18
2022-08-10T22:46:02.894Z,2.29
2022-08-10T22:48:29.214Z,2.31
2022-08-10T22:50:55.506Z,2.26
2022-08-10T22:53:21.807Z,2.56
2022-08-10T22:55:48.117Z,2.31
2022-08-10T22:58:14.432Z,2.38
2022-08-10T23:00:40.771Z,2.48
2022-08-10T23:03:07.140Z,2.25
2022-08-10T23:05:33.546Z,2.40
2022-08-10T23:07:59.854Z,2.27
2022-08-10T23:10:26.181Z,2.30
2022-08-10T23:12:52.474Z,2.35
2022-08-10T23:15:18.778Z,2.20
2022-08-10T23:18:01.750Z,2.09
2022-08-10T23:20:28.883Z,2.37
2022-08-10T23:22:55.186Z,2.37
2022-08-10T23:25:21.495Z,2.25
2022-08-10T23:27:56.538Z,2.14
2022-08-10T23:30:24.893Z,2.37
2022-08-10T23:32:52.305Z,2.35
2022-08-10T23:36:31.367Z,2.26
2022-08-10T23:38:04.907Z,2.33
2022-08-10T23:40:31.206Z,2.32
2022-08-10T23:42:57.512Z,2.16
2022-08-10T23:45:23.885Z,2.27
2022-08-10T23:47:50.188Z,2.26
2022-08-10T23:50:16.503Z,2.13
2022-08-10T23:52:42.804Z,2.26
2022-08-10T23:55:09.108Z,2.23
2022-08-10T23:57:35.404Z,2.27
